sensor_id;sensor_type;location;lat;lon;timestamp;temperature;humidity
41924;DHT22;27613;48.116;11.656;2022-10-19T00:02:05;14.80;99.90
41924;DHT22;27613;48.116;11.656;2022-10-19T00:04:31;14.70;99.90
41924;DHT22;27613;48.116;11.656;2022-10-19T00:06:57;14.70;99.90
41924;DHT22;27613;48.116;11.656;2022-10-19T00:09:22;14.80;99.90
41924;DHT22;27613;48.116;11.656;2022-10-19T00:11:49;14.80;99.90
41924;DHT22;27613;48.116;11.656;2022-10-19T00:14:22;14.70;99.90
41924;DHT22;27613;48.116;11.656;2022-10-19T00:16:49;14.70;99.90
41924;DHT22;27613;48.116;11.656;2022-10-19T00:19:19;14.70;99.90
41924;DHT22;27613;48.116;11.656;2022-10-19T00:21:45;14.70;99.90
41924;DHT22;27613;48.116;11.656;2022-10-19T00:24:11;14.70;99.90
41924;DHT22;27613;48.116;11.656;2022-10-19T00:26:37;14.70;99.90
41924;DHT22;27613;48.116;11.656;2022-10-19T00:29:03;14.70;99.90
41924;DHT22;27613;48.116;11.656;2022-10-19T00:31:29;14.80;99.90
41924;DHT22;27613;48.116;11.656;2022-10-19T00:33:56;14.80;99.90
41924;DHT22;27613;48.116;11.656;2022-10-19T00:36:30;14.70;99.90
41924;DHT22;27613;48.116;11.656;2022-10-19T00:38:57;14.60;99.90
41924;DHT22;27613;48.116;11.656;2022-10-19T00:41:25;14.60;99.90
41924;DHT22;27613;48.116;11.656;2022-10-19T00:46:21;14.60;99.90
41924;DHT22;27613;48.116;11.656;2022-10-19T00:48:48;14.50;99.90
41924;DHT22;27613;48.116;11.656;2022-10-19T00:51:14;14.60;99.90
41924;DHT22;27613;48.116;11.656;2022-10-19T00:53:40;14.60;99.90
41924;DHT22;27613;48.116;11.656;2022-10-19T00:56:10;14.60;99.90
41924;DHT22;27613;48.116;11.656;2022-10-19T00:58:36;14.50;99.90
41924;DHT22;27613;48.116;11.656;2022-10-19T01:01:03;14.40;99.90
41924;DHT22;27613;48.116;11.656;2022-10-19T01:03:31;14.40;99.90
41924;DHT22;27613;48.116;11.656;2022-10-19T01:05:57;14.40;99.90
41924;DHT22;27613;48.116;11.656;2022-10-19T01:08:23;14.40;99.90
41924;DHT22;27613;48.116;11.656;2022-10-19T01:16:16;14.30;99.90
41924;DHT22;27613;48.116;11.656;2022-10-19T01:26:42;14.40;99.90
41924;DHT22;27613;48.116;11.656;2022-10-19T01:37:32;14.40;99.90
41924;DHT22;27613;48.116;11.656;2022-10-19T01:40:26;14.40;99.90
41924;DHT22;27613;48.116;11.656;2022-10-19T01:45:40;14.30;99.90
41924;DHT22;27613;48.116;11.656;2022-10-19T01:48:14;14.30;99.90
41924;DHT22;27613;48.116;11.656;2022-10-19T01:50:49;14.30;99.90
41924;DHT22;27613;48.116;11.656;2022-10-19T01:53:16;14.30;99.90
41924;DHT22;27613;48.116;11.656;2022-10-19T01:55:44;14.30;99.90
41924;DHT22;27613;48.116;11.656;2022-10-19T01:58:15;14.30;99.90
41924;DHT22;27613;48.116;11.656;2022-10-19T02:00:44;14.30;99.90
41924;DHT22;27613;48.116;11.656;2022-10-19T02:03:11;14.30;99.90
41924;DHT22;27613;48.116;11.656;2022-10-19T02:05:38;14.30;99.90
41924;DHT22;27613;48.116;11.656;2022-10-19T02:08:23;14.30;99.90
41924;DHT22;27613;48.116;11.656;2022-10-19T02:10:51;14.40;99.90
41924;DHT22;27613;48.116;11.656;2022-10-19T02:13:18;14.40;99.90
41924;DHT22;27613;48.116;11.656;2022-10-19T02:15:47;14.40;99.90
41924;DHT22;27613;48.116;11.656;2022-10-19T02:18:17;14.30;99.90
41924;DHT22;27613;48.116;11.656;2022-10-19T02:20:45;14.30;99.90
41924;DHT22;27613;48.116;11.656;2022-10-19T02:23:11;14.40;99.90
41924;DHT22;27613;48.116;11.656;2022-10-19T02:25:37;14.30;99.90
41924;DHT22;27613;48.116;11.656;2022-10-19T02:28:04;14.40;99.90
41924;DHT22;27613;48.116;11.656;2022-10-19T02:30:29;14.40;99.90
41924;DHT22;27613;48.116;11.656;2022-10-19T02:32:55;14.40;99.90
41924;DHT22;27613;48.116;11.656;2022-10-19T02:35:21;14.40;99.90
41924;DHT22;27613;48.116;11.656;2022-10-19T02:37:47;14.40;99.90
41924;DHT22;27613;48.116;11.656;2022-10-19T02:40:13;14.40;99.90
41924;DHT22;27613;48.116;11.656;2022-10-19T02:42:42;14.50;99.90
41924;DHT22;27613;48.116;11.656;2022-10-19T02:45:23;14.40;99.90
41924;DHT22;27613;48.116;11.656;2022-10-19T02:47:53;14.50;99.90
41924;DHT22;27613;48.116;11.656;2022-10-19T02:50:20;14.40;99.90
41924;DHT22;27613;48.116;11.656;2022-10-19T02:52:46;14.50;99.90
41924;DHT22;27613;48.116;11.656;2022-10-19T02:55:12;14.50;99.90
41924;DHT22;27613;48.116;11.656;2022-10-19T02:57:37;14.50;99.90
41924;DHT22;27613;48.116;11.656;2022-10-19T03:00:05;14.40;99.90
41924;DHT22;27613;48.116;11.656;2022-10-19T03:02:31;14.30;99.90
41924;DHT22;27613;48.116;11.656;2022-10-19T03:04:57;14.30;99.90
41924;DHT22;27613;48.116;11.656;2022-10-19T03:07:22;14.30;99.90
41924;DHT22;27613;48.116;11.656;2022-10-19T03:09:48;14.30;99.90
41924;DHT22;27613;48.116;11.656;2022-10-19T03:12:14;14.40;99.90
41924;DHT22;27613;48.116;11.656;2022-10-19T03:14:39;14.40;99.90
41924;DHT22;27613;48.116;11.656;2022-10-19T03:17:05;14.40;99.90
41924;DHT22;27613;48.116;11.656;2022-10-19T03:19:31;14.30;99.90
41924;DHT22;27613;48.116;11.656;2022-10-19T03:21:56;14.30;99.90
41924;DHT22;27613;48.116;11.656;2022-10-19T03:24:22;14.40;99.90
41924;DHT22;27613;48.116;11.656;2022-10-19T03:26:48;14.30;99.90
41924;DHT22;27613;48.116;11.656;2022-10-19T03:29:13;14.40;99.90
41924;DHT22;27613;48.116;11.656;2022-10-19T03:31:39;14.40;99.90
41924;DHT22;27613;48.116;11.656;2022-10-19T03:34:04;14.40;99.90
41924;DHT22;27613;48.116;11.656;2022-10-19T03:36:35;14.40;99.90
41924;DHT22;27613;48.116;11.656;2022-10-19T03:39:04;14.40;99.90
41924;DHT22;27613;48.116;11.656;2022-10-19T03:41:32;14.40;99.90
41924;DHT22;27613;48.116;11.656;2022-10-19T03:43:58;14.40;99.90
41924;DHT22;27613;48.116;11.656;2022-10-19T03:46:25;14.30;99.90
41924;DHT22;27613;48.116;11.656;2022-10-19T03:48:51;14.30;99.90
41924;DHT22;27613;48.116;11.656;2022-10-19T03:51:19;14.20;99.90
41924;DHT22;27613;48.116;11.656;2022-10-19T03:53:45;14.20;99.90
41924;DHT22;27613;48.116;11.656;2022-10-19T03:56:12;14.10;99.90
41924;DHT22;27613;48.116;11.656;2022-10-19T03:58:39;14.00;99.90
41924;DHT22;27613;48.116;11.656;2022-10-19T04:01:07;13.90;99.90
41924;DHT22;27613;48.116;11.656;2022-10-19T04:03:33;13.80;99.90
41924;DHT22;27613;48.116;11.656;2022-10-19T04:06:07;13.70;99.90
41924;DHT22;27613;48.116;11.656;2022-10-19T04:08:34;13.60;99.90
41924;DHT22;27613;48.116;11.656;2022-10-19T04:11:01;13.60;99.90
41924;DHT22;27613;48.116;11.656;2022-10-19T04:13:27;13.50;99.90
41924;DHT22;27613;48.116;11.656;2022-10-19T04:15:53;13.40;99.90
41924;DHT22;27613;48.116;11.656;2022-10-19T04:18:18;13.40;99.90
41924;DHT22;27613;48.116;11.656;2022-10-19T04:20:44;13.40;99.90
41924;DHT22;27613;48.116;11.656;2022-10-19T04:23:09;13.30;99.90
41924;DHT22;27613;48.116;11.656;2022-10-19T04:25:35;13.40;99.90
41924;DHT22;27613;48.116;11.656;2022-10-19T04:28:00;13.50;99.90
41924;DHT22;27613;48.116;11.656;2022-10-19T04:30:26;13.40;99.90
41924;DHT22;27613;48.116;11.656;2022-10-19T04:32:51;13.40;99.90
41924;DHT22;27613;48.116;11.656;2022-10-19T04:35:17;13.40;99.90
41924;DHT22;27613;48.116;11.656;2022-10-19T04:37:43;13.50;99.90
41924;DHT22;27613;48.116;11.656;2022-10-19T04:40:09;13.50;99.90
41924;DHT22;27613;48.116;11.656;2022-10-19T04:42:35;13.50;99.90
41924;DHT22;27613;48.116;11.656;2022-10-19T04:45:00;13.50;99.90
41924;DHT22;27613;48.116;11.656;2022-10-19T04:47:28;13.50;99.90
41924;DHT22;27613;48.116;11.656;2022-10-19T04:49:54;13.60;99.90
41924;DHT22;27613;48.116;11.656;2022-10-19T04:52:19;13.70;99.90
41924;DHT22;27613;48.116;11.656;2022-10-19T04:54:45;13.70;99.90
41924;DHT22;27613;48.116;11.656;2022-10-19T04:57:11;13.70;99.90
41924;DHT22;27613;48.116;11.656;2022-10-19T04:59:37;13.70;99.90
41924;DHT22;27613;48.116;11.656;2022-10-19T05:02:03;13.70;99.90
41924;DHT22;27613;48.116;11.656;2022-10-19T05:04:28;13.70;99.90
41924;DHT22;27613;48.116;11.656;2022-10-19T05:06:54;13.70;99.90
41924;DHT22;27613;48.116;11.656;2022-10-19T05:09:19;13.70;99.90
41924;DHT22;27613;48.116;11.656;2022-10-19T05:11:48;13.60;99.90
41924;DHT22;27613;48.116;11.656;2022-10-19T05:14:13;13.60;99.90
41924;DHT22;27613;48.116;11.656;2022-10-19T05:16:39;13.60;99.90
41924;DHT22;27613;48.116;11.656;2022-10-19T05:19:04;13.70;99.90
41924;DHT22;27613;48.116;11.656;2022-10-19T05:21:30;13.70;99.90
41924;DHT22;27613;48.116;11.656;2022-10-19T05:23:56;13.60;99.90
41924;DHT22;27613;48.116;11.656;2022-10-19T05:26:23;13.70;99.90
41924;DHT22;27613;48.116;11.656;2022-10-19T05:28:51;13.60;99.90
41924;DHT22;27613;48.116;11.656;2022-10-19T05:31:22;13.60;99.90
41924;DHT22;27613;48.116;11.656;2022-10-19T05:33:48;13.70;99.90
41924;DHT22;27613;48.116;11.656;2022-10-19T05:36:20;13.80;99.90
41924;DHT22;27613;48.116;11.656;2022-10-19T05:38:47;13.80;99.90
41924;DHT22;27613;48.116;11.656;2022-10-19T05:41:13;13.70;99.90
41924;DHT22;27613;48.116;11.656;2022-10-19T05:43:40;13.70;99.90
41924;DHT22;27613;48.116;11.656;2022-10-19T05:46:08;13.80;99.90
41924;DHT22;27613;48.116;11.656;2022-10-19T05:48:35;13.80;99.90
41924;DHT22;27613;48.116;11.656;2022-10-19T05:51:03;13.80;99.90
41924;DHT22;27613;48.116;11.656;2022-10-19T05:53:30;13.80;99.90
41924;DHT22;27613;48.116;11.656;2022-10-19T05:55:55;13.90;99.90
41924;DHT22;27613;48.116;11.656;2022-10-19T05:58:21;13.90;99.90
41924;DHT22;27613;48.116;11.656;2022-10-19T06:00:54;14.00;99.90
41924;DHT22;27613;48.116;11.656;2022-10-19T06:03:20;14.00;99.90
41924;DHT22;27613;48.116;11.656;2022-10-19T06:05:48;14.00;99.90
41924;DHT22;27613;48.116;11.656;2022-10-19T06:08:14;14.10;99.90
41924;DHT22;27613;48.116;11.656;2022-10-19T06:10:40;14.10;99.90
41924;DHT22;27613;48.116;11.656;2022-10-19T06:13:05;14.20;99.90
41924;DHT22;27613;48.116;11.656;2022-10-19T06:15:35;14.20;99.90
41924;DHT22;27613;48.116;11.656;2022-10-19T06:18:08;14.30;99.90
41924;DHT22;27613;48.116;11.656;2022-10-19T06:20:39;14.20;99.90
41924;DHT22;27613;48.116;11.656;2022-10-19T06:23:05;14.20;99.90
41924;DHT22;27613;48.116;11.656;2022-10-19T06:25:31;14.30;99.90
41924;DHT22;27613;48.116;11.656;2022-10-19T06:27:58;14.30;99.90
41924;DHT22;27613;48.116;11.656;2022-10-19T06:30:24;14.40;99.90
41924;DHT22;27613;48.116;11.656;2022-10-19T06:32:49;14.40;99.90
41924;DHT22;27613;48.116;11.656;2022-10-19T06:35:15;14.40;99.90
41924;DHT22;27613;48.116;11.656;2022-10-19T06:37:41;14.40;99.90
41924;DHT22;27613;48.116;11.656;2022-10-19T06:40:08;14.50;99.90
41924;DHT22;27613;48.116;11.656;2022-10-19T06:42:34;14.50;99.90
41924;DHT22;27613;48.116;11.656;2022-10-19T06:45:07;14.60;99.90
41924;DHT22;27613;48.116;11.656;2022-10-19T06:47:34;14.60;99.90
41924;DHT22;27613;48.116;11.656;2022-10-19T06:50:00;14.60;99.90
41924;DHT22;27613;48.116;11.656;2022-10-19T06:52:26;14.70;99.90
41924;DHT22;27613;48.116;11.656;2022-10-19T06:54:51;14.70;99.90
41924;DHT22;27613;48.116;11.656;2022-10-19T06:57:17;14.70;99.90
41924;DHT22;27613;48.116;11.656;2022-10-19T06:59:42;14.70;99.90
41924;DHT22;27613;48.116;11.656;2022-10-19T07:02:12;14.60;99.90
41924;DHT22;27613;48.116;11.656;2022-10-19T07:04:38;14.60;99.90
41924;DHT22;27613;48.116;11.656;2022-10-19T07:07:04;14.60;99.90
41924;DHT22;27613;48.116;11.656;2022-10-19T07:09:29;14.60;99.90
41924;DHT22;27613;48.116;11.656;2022-10-19T07:11:55;14.80;99.90
41924;DHT22;27613;48.116;11.656;2022-10-19T07:14:21;14.80;99.90
41924;DHT22;27613;48.116;11.656;2022-10-19T07:16:49;14.80;99.90
41924;DHT22;27613;48.116;11.656;2022-10-19T07:19:14;14.90;99.90
41924;DHT22;27613;48.116;11.656;2022-10-19T07:21:40;14.90;99.90
41924;DHT22;27613;48.116;11.656;2022-10-19T07:24:07;14.80;99.90
41924;DHT22;27613;48.116;11.656;2022-10-19T07:26:33;14.80;99.90
41924;DHT22;27613;48.116;11.656;2022-10-19T07:28:59;14.80;99.90
41924;DHT22;27613;48.116;11.656;2022-10-19T07:31:26;14.90;99.90
41924;DHT22;27613;48.116;11.656;2022-10-19T07:33:57;14.90;99.90
41924;DHT22;27613;48.116;11.656;2022-10-19T07:36:23;15.00;99.90
41924;DHT22;27613;48.116;11.656;2022-10-19T07:38:49;15.00;99.90
41924;DHT22;27613;48.116;11.656;2022-10-19T07:41:18;15.00;99.90
41924;DHT22;27613;48.116;11.656;2022-10-19T07:43:47;15.00;99.90
41924;DHT22;27613;48.116;11.656;2022-10-19T07:46:16;15.10;99.90
41924;DHT22;27613;48.116;11.656;2022-10-19T07:48:42;15.10;99.90
41924;DHT22;27613;48.116;11.656;2022-10-19T07:51:09;15.10;99.90
41924;DHT22;27613;48.116;11.656;2022-10-19T07:53:35;15.10;99.90
41924;DHT22;27613;48.116;11.656;2022-10-19T07:56:13;15.10;99.90
41924;DHT22;27613;48.116;11.656;2022-10-19T07:58:40;15.00;99.90
41924;DHT22;27613;48.116;11.656;2022-10-19T08:01:08;14.90;99.90
41924;DHT22;27613;48.116;11.656;2022-10-19T08:03:34;15.00;99.90
41924;DHT22;27613;48.116;11.656;2022-10-19T08:06:02;14.90;99.90
41924;DHT22;27613;48.116;11.656;2022-10-19T08:08:28;15.00;99.90
41924;DHT22;27613;48.116;11.656;2022-10-19T08:10:54;15.10;99.90
41924;DHT22;27613;48.116;11.656;2022-10-19T08:13:19;15.10;99.90
41924;DHT22;27613;48.116;11.656;2022-10-19T08:15:45;15.20;99.90
41924;DHT22;27613;48.116;11.656;2022-10-19T08:18:10;15.20;99.90
41924;DHT22;27613;48.116;11.656;2022-10-19T08:20:39;15.30;99.90
41924;DHT22;27613;48.116;11.656;2022-10-19T08:23:05;15.40;99.90
41924;DHT22;27613;48.116;11.656;2022-10-19T08:25:30;15.50;99.90
41924;DHT22;27613;48.116;11.656;2022-10-19T08:27:56;15.50;99.90
41924;DHT22;27613;48.116;11.656;2022-10-19T08:30:21;15.70;99.90
41924;DHT22;27613;48.116;11.656;2022-10-19T08:32:47;15.70;99.90
41924;DHT22;27613;48.116;11.656;2022-10-19T08:35:12;15.80;99.90
41924;DHT22;27613;48.116;11.656;2022-10-19T08:37:38;16.10;99.90
41924;DHT22;27613;48.116;11.656;2022-10-19T08:40:04;16.10;99.90
41924;DHT22;27613;48.116;11.656;2022-10-19T08:42:51;16.10;99.90
41924;DHT22;27613;48.116;11.656;2022-10-19T08:48:14;16.40;99.90
41924;DHT22;27613;48.116;11.656;2022-10-19T08:50:44;16.40;99.90
41924;DHT22;27613;48.116;11.656;2022-10-19T08:53:14;16.20;99.90
41924;DHT22;27613;48.116;11.656;2022-10-19T08:58:49;16.30;99.90
41924;DHT22;27613;48.116;11.656;2022-10-19T09:01:43;16.30;99.90
41924;DHT22;27613;48.116;11.656;2022-10-19T09:07:20;16.20;99.90
41924;DHT22;27613;48.116;11.656;2022-10-19T09:09:41;16.10;99.90
41924;DHT22;27613;48.116;11.656;2022-10-19T09:12:10;16.20;99.90
41924;DHT22;27613;48.116;11.656;2022-10-19T09:14:50;16.20;99.90
41924;DHT22;27613;48.116;11.656;2022-10-19T09:17:18;16.30;99.90
41924;DHT22;27613;48.116;11.656;2022-10-19T09:19:44;16.10;99.90
41924;DHT22;27613;48.116;11.656;2022-10-19T09:22:19;16.30;99.90
41924;DHT22;27613;48.116;11.656;2022-10-19T09:24:50;16.40;99.90
41924;DHT22;27613;48.116;11.656;2022-10-19T09:27:21;16.20;99.90
41924;DHT22;27613;48.116;11.656;2022-10-19T09:29:53;16.20;99.90
41924;DHT22;27613;48.116;11.656;2022-10-19T09:32:24;16.30;99.90
41924;DHT22;27613;48.116;11.656;2022-10-19T09:34:54;16.40;99.90
41924;DHT22;27613;48.116;11.656;2022-10-19T09:37:21;16.40;99.90
41924;DHT22;27613;48.116;11.656;2022-10-19T09:39:47;16.30;99.90
41924;DHT22;27613;48.116;11.656;2022-10-19T09:42:30;16.20;99.90
41924;DHT22;27613;48.116;11.656;2022-10-19T09:45:15;15.90;99.90
41924;DHT22;27613;48.116;11.656;2022-10-19T09:47:45;15.90;99.90
41924;DHT22;27613;48.116;11.656;2022-10-19T09:52:45;16.10;99.90
41924;DHT22;27613;48.116;11.656;2022-10-19T09:57:44;16.20;99.90
41924;DHT22;27613;48.116;11.656;2022-10-19T10:00:30;16.20;99.90
41924;DHT22;27613;48.116;11.656;2022-10-19T10:02:56;16.10;99.90
41924;DHT22;27613;48.116;11.656;2022-10-19T10:05:39;16.10;99.90
41924;DHT22;27613;48.116;11.656;2022-10-19T10:08:17;16.00;99.90
41924;DHT22;27613;48.116;11.656;2022-10-19T10:10:53;16.00;99.90
41924;DHT22;27613;48.116;11.656;2022-10-19T10:13:23;16.00;99.90
41924;DHT22;27613;48.116;11.656;2022-10-19T10:15:55;16.10;99.90
41924;DHT22;27613;48.116;11.656;2022-10-19T10:18:22;16.10;99.90
41924;DHT22;27613;48.116;11.656;2022-10-19T10:21:01;16.20;99.90
41924;DHT22;27613;48.116;11.656;2022-10-19T10:23:30;16.30;99.90
41924;DHT22;27613;48.116;11.656;2022-10-19T10:25:58;16.40;99.90
41924;DHT22;27613;48.116;11.656;2022-10-19T10:28:26;16.40;99.90
41924;DHT22;27613;48.116;11.656;2022-10-19T10:30:58;16.30;99.90
41924;DHT22;27613;48.116;11.656;2022-10-19T10:33:26;16.30;99.90
41924;DHT22;27613;48.116;11.656;2022-10-19T10:36:01;16.30;99.90
41924;DHT22;27613;48.116;11.656;2022-10-19T10:38:44;16.40;99.90
41924;DHT22;27613;48.116;11.656;2022-10-19T10:41:16;16.40;99.90
41924;DHT22;27613;48.116;11.656;2022-10-19T10:44:01;16.50;99.90
41924;DHT22;27613;48.116;11.656;2022-10-19T10:47:01;16.50;99.90
41924;DHT22;27613;48.116;11.656;2022-10-19T10:49:28;16.50;99.90
41924;DHT22;27613;48.116;11.656;2022-10-19T10:51:56;16.50;99.90
41924;DHT22;27613;48.116;11.656;2022-10-19T10:59:59;16.50;99.90
41924;DHT22;27613;48.116;11.656;2022-10-19T11:05:11;16.70;99.90
41924;DHT22;27613;48.116;11.656;2022-10-19T11:07:44;16.80;99.90
41924;DHT22;27613;48.116;11.656;2022-10-19T11:10:34;16.80;99.90
41924;DHT22;27613;48.116;11.656;2022-10-19T11:15:36;16.70;99.90
41924;DHT22;27613;48.116;11.656;2022-10-19T11:18:28;16.80;99.90
41924;DHT22;27613;48.116;11.656;2022-10-19T11:26:40;17.00;99.90
41924;DHT22;27613;48.116;11.656;2022-10-19T11:29:36;17.00;99.90
41924;DHT22;27613;48.116;11.656;2022-10-19T11:34:59;17.20;99.90
41924;DHT22;27613;48.116;11.656;2022-10-19T11:40:35;17.50;99.90
41924;DHT22;27613;48.116;11.656;2022-10-19T11:43:06;17.60;99.90
41924;DHT22;27613;48.116;11.656;2022-10-19T11:45:49;17.70;99.90
41924;DHT22;27613;48.116;11.656;2022-10-19T11:48:47;17.70;99.90
41924;DHT22;27613;48.116;11.656;2022-10-19T11:54:17;17.90;99.70
41924;DHT22;27613;48.116;11.656;2022-10-19T12:02:24;17.90;97.80
41924;DHT22;27613;48.116;11.656;2022-10-19T12:05:03;18.00;97.30
41924;DHT22;27613;48.116;11.656;2022-10-19T12:10:46;18.40;96.10
41924;DHT22;27613;48.116;11.656;2022-10-19T12:13:17;18.50;95.30
41924;DHT22;27613;48.116;11.656;2022-10-19T12:15:48;18.40;95.10
41924;DHT22;27613;48.116;11.656;2022-10-19T12:18:27;18.20;95.00
41924;DHT22;27613;48.116;11.656;2022-10-19T12:20:56;18.20;95.20
41924;DHT22;27613;48.116;11.656;2022-10-19T12:23:32;18.10;95.00
41924;DHT22;27613;48.116;11.656;2022-10-19T12:25:59;18.00;95.70
41924;DHT22;27613;48.116;11.656;2022-10-19T12:28:30;17.80;96.40
41924;DHT22;27613;48.116;11.656;2022-10-19T12:30:58;17.60;96.90
41924;DHT22;27613;48.116;11.656;2022-10-19T12:33:48;17.50;97.20
41924;DHT22;27613;48.116;11.656;2022-10-19T12:36:38;17.40;97.20
41924;DHT22;27613;48.116;11.656;2022-10-19T12:45:17;16.90;99.20
41924;DHT22;27613;48.116;11.656;2022-10-19T12:53:34;17.80;98.50
41924;DHT22;27613;48.116;11.656;2022-10-19T12:56:19;17.60;98.00
41924;DHT22;27613;48.116;11.656;2022-10-19T12:58:58;17.50;98.10
41924;DHT22;27613;48.116;11.656;2022-10-19T13:04:24;17.80;97.40
41924;DHT22;27613;48.116;11.656;2022-10-19T13:14:41;18.60;95.90
41924;DHT22;27613;48.116;11.656;2022-10-19T13:17:07;18.80;95.10
41924;DHT22;27613;48.116;11.656;2022-10-19T13:19:33;19.20;94.80
41924;DHT22;27613;48.116;11.656;2022-10-19T13:22:23;19.90;93.60
41924;DHT22;27613;48.116;11.656;2022-10-19T13:25:24;19.80;92.80
41924;DHT22;27613;48.116;11.656;2022-10-19T13:27:54;20.10;92.30
41924;DHT22;27613;48.116;11.656;2022-10-19T13:33:36;20.00;91.90
41924;DHT22;27613;48.116;11.656;2022-10-19T13:36:06;19.70;92.40
41924;DHT22;27613;48.116;11.656;2022-10-19T13:38:44;19.80;92.40
41924;DHT22;27613;48.116;11.656;2022-10-19T13:41:56;19.70;92.10
41924;DHT22;27613;48.116;11.656;2022-10-19T13:46:56;19.30;91.50
41924;DHT22;27613;48.116;11.656;2022-10-19T14:00:19;18.80;91.70
41924;DHT22;27613;48.116;11.656;2022-10-19T14:10:43;18.80;91.30
41924;DHT22;27613;48.116;11.656;2022-10-19T14:13:13;18.40;91.10
41924;DHT22;27613;48.116;11.656;2022-10-19T14:15:50;18.90;91.20
41924;DHT22;27613;48.116;11.656;2022-10-19T14:18:27;19.30;90.80
41924;DHT22;27613;48.116;11.656;2022-10-19T14:20:57;19.40;90.50
41924;DHT22;27613;48.116;11.656;2022-10-19T14:23:28;19.50;90.20
41924;DHT22;27613;48.116;11.656;2022-10-19T14:26:04;19.30;90.10
41924;DHT22;27613;48.116;11.656;2022-10-19T14:28:32;19.20;90.30
41924;DHT22;27613;48.116;11.656;2022-10-19T14:31:17;19.20;90.50
41924;DHT22;27613;48.116;11.656;2022-10-19T14:33:46;19.10;90.60
41924;DHT22;27613;48.116;11.656;2022-10-19T14:36:20;18.90;90.70
41924;DHT22;27613;48.116;11.656;2022-10-19T14:38:49;18.70;91.00
41924;DHT22;27613;48.116;11.656;2022-10-19T14:43:52;18.60;91.70
41924;DHT22;27613;48.116;11.656;2022-10-19T14:46:17;19.10;91.20
41924;DHT22;27613;48.116;11.656;2022-10-19T14:48:47;20.10;88.80
41924;DHT22;27613;48.116;11.656;2022-10-19T14:51:46;20.90;85.50
41924;DHT22;27613;48.116;11.656;2022-10-19T14:54:26;21.60;82.50
41924;DHT22;27613;48.116;11.656;2022-10-19T14:56:59;22.30;79.20
41924;DHT22;27613;48.116;11.656;2022-10-19T14:59:34;22.50;78.80
41924;DHT22;27613;48.116;11.656;2022-10-19T15:02:14;22.90;76.90
41924;DHT22;27613;48.116;11.656;2022-10-19T15:04:41;22.80;76.60
41924;DHT22;27613;48.116;11.656;2022-10-19T15:07:19;21.60;78.50
41924;DHT22;27613;48.116;11.656;2022-10-19T15:10:04;20.80;81.40
41924;DHT22;27613;48.116;11.656;2022-10-19T15:12:39;20.10;84.70
41924;DHT22;27613;48.116;11.656;2022-10-19T15:17:52;19.00;90.50
41924;DHT22;27613;48.116;11.656;2022-10-19T15:20:27;18.70;91.30
41924;DHT22;27613;48.116;11.656;2022-10-19T15:22:55;18.40;91.80
41924;DHT22;27613;48.116;11.656;2022-10-19T15:25:33;18.20;92.10
41924;DHT22;27613;48.116;11.656;2022-10-19T15:28:28;18.00;92.50
41924;DHT22;27613;48.116;11.656;2022-10-19T15:31:12;17.80;92.80
41924;DHT22;27613;48.116;11.656;2022-10-19T15:33:40;17.70;93.00
41924;DHT22;27613;48.116;11.656;2022-10-19T15:36:10;17.70;93.00
41924;DHT22;27613;48.116;11.656;2022-10-19T15:38:48;17.60;93.30
41924;DHT22;27613;48.116;11.656;2022-10-19T15:41:20;17.50;93.60
41924;DHT22;27613;48.116;11.656;2022-10-19T15:43:54;17.30;93.90
41924;DHT22;27613;48.116;11.656;2022-10-19T15:47:24;17.10;94.40
41924;DHT22;27613;48.116;11.656;2022-10-19T15:51:45;16.80;95.20
41924;DHT22;27613;48.116;11.656;2022-10-19T15:54:13;16.60;95.50
41924;DHT22;27613;48.116;11.656;2022-10-19T15:56:45;16.60;95.90
41924;DHT22;27613;48.116;11.656;2022-10-19T15:59:17;16.50;96.20
41924;DHT22;27613;48.116;11.656;2022-10-19T16:01:43;16.30;96.50
41924;DHT22;27613;48.116;11.656;2022-10-19T16:04:10;16.20;96.90
41924;DHT22;27613;48.116;11.656;2022-10-19T16:06:37;16.10;97.30
41924;DHT22;27613;48.116;11.656;2022-10-19T16:09:04;15.90;97.70
41924;DHT22;27613;48.116;11.656;2022-10-19T16:11:30;15.80;98.30
41924;DHT22;27613;48.116;11.656;2022-10-19T16:13:56;15.70;98.70
41924;DHT22;27613;48.116;11.656;2022-10-19T16:16:27;15.70;99.10
41924;DHT22;27613;48.116;11.656;2022-10-19T16:18:53;15.50;99.90
41924;DHT22;27613;48.116;11.656;2022-10-19T16:21:21;15.40;99.90
41924;DHT22;27613;48.116;11.656;2022-10-19T16:23:47;15.30;99.90
41924;DHT22;27613;48.116;11.656;2022-10-19T16:26:13;15.20;99.90
41924;DHT22;27613;48.116;11.656;2022-10-19T16:28:39;15.10;99.90
41924;DHT22;27613;48.116;11.656;2022-10-19T16:31:05;14.90;99.90
41924;DHT22;27613;48.116;11.656;2022-10-19T16:33:30;14.80;99.90
41924;DHT22;27613;48.116;11.656;2022-10-19T16:35:56;14.70;99.90
41924;DHT22;27613;48.116;11.656;2022-10-19T16:38:21;14.60;99.90
41924;DHT22;27613;48.116;11.656;2022-10-19T16:40:47;14.50;99.90
41924;DHT22;27613;48.116;11.656;2022-10-19T16:43:12;14.50;99.90
41924;DHT22;27613;48.116;11.656;2022-10-19T16:45:42;14.40;99.90
41924;DHT22;27613;48.116;11.656;2022-10-19T16:48:11;14.40;99.90
41924;DHT22;27613;48.116;11.656;2022-10-19T16:50:37;14.30;99.90
41924;DHT22;27613;48.116;11.656;2022-10-19T16:53:06;14.20;99.90
41924;DHT22;27613;48.116;11.656;2022-10-19T16:55:35;14.20;99.90
41924;DHT22;27613;48.116;11.656;2022-10-19T16:58:01;14.20;99.90
41924;DHT22;27613;48.116;11.656;2022-10-19T17:00:27;14.10;99.90
41924;DHT22;27613;48.116;11.656;2022-10-19T17:02:52;14.10;99.90
41924;DHT22;27613;48.116;11.656;2022-10-19T17:05:18;14.10;99.90
41924;DHT22;27613;48.116;11.656;2022-10-19T17:07:43;14.10;99.90
41924;DHT22;27613;48.116;11.656;2022-10-19T17:10:09;14.20;99.90
41924;DHT22;27613;48.116;11.656;2022-10-19T17:12:37;14.30;99.90
41924;DHT22;27613;48.116;11.656;2022-10-19T17:15:03;14.30;99.90
41924;DHT22;27613;48.116;11.656;2022-10-19T17:17:29;14.30;99.90
41924;DHT22;27613;48.116;11.656;2022-10-19T17:19:54;14.30;99.90
41924;DHT22;27613;48.116;11.656;2022-10-19T17:22:20;14.30;99.90
41924;DHT22;27613;48.116;11.656;2022-10-19T17:24:45;14.30;99.90
41924;DHT22;27613;48.116;11.656;2022-10-19T17:27:11;14.30;99.90
41924;DHT22;27613;48.116;11.656;2022-10-19T17:29:37;14.30;99.90
41924;DHT22;27613;48.116;11.656;2022-10-19T17:32:02;14.30;99.90
41924;DHT22;27613;48.116;11.656;2022-10-19T17:34:31;14.30;99.90
41924;DHT22;27613;48.116;11.656;2022-10-19T17:36:57;14.40;99.90
41924;DHT22;27613;48.116;11.656;2022-10-19T17:39:23;14.40;99.90
41924;DHT22;27613;48.116;11.656;2022-10-19T17:41:50;14.20;99.90